Time;durP1;ratioP1;P1;durP2;ratioP2;P2;SDS_P1;SDS_P2;PMS_P1;PMS_P2;Temp;Humidity;BMP_temperature;BMP_pressure;BME280_temperature;BME280_humidity;BME280_pressure;Samples;Min_cycle;Max_cycle;Signal;HPM_P1;HPM_P2
2022/03/23 00:01:11;;;;;;;16.60;9.60;;;5.60;54.10;;;;;;4955614;28;20039;-89
2022/03/23 00:03:37;;;;;;;17.92;9.98;;;5.60;54.10;;;;;;4961534;28;20460;-90
2022/03/23 00:06:03;;;;;;;18.15;9.88;;;5.50;54.10;;;;;;4961644;28;20475;-89
2022/03/23 00:08:29;;;;;;;18.90;9.05;;;5.50;54.50;;;;;;4954841;28;20037;-89
2022/03/23 00:10:55;;;;;;;16.27;9.32;;;5.50;54.80;;;;;;4959673;28;20030;-89
2022/03/23 00:13:20;;;;;;;18.98;9.50;;;5.50;54.90;;;;;;4955309;28;20033;-89
2022/03/23 00:15:46;;;;;;;13.68;8.48;;;5.50;54.80;;;;;;4975586;28;20022;-89
2022/03/23 00:18:12;;;;;;;16.83;9.15;;;5.40;54.70;;;;;;4955456;28;20027;-89
2022/03/23 00:20:39;;;;;;;16.90;8.48;;;5.30;54.90;;;;;;4964047;28;20133;-89
2022/03/23 00:23:05;;;;;;;15.75;8.70;;;5.30;55.00;;;;;;4954069;28;20034;-90
2022/03/23 00:25:31;;;;;;;16.73;8.80;;;5.30;54.90;;;;;;4964169;28;20590;-89
2022/03/23 00:27:56;;;;;;;13.70;8.10;;;5.20;54.90;;;;;;4970365;28;20039;-89
2022/03/23 00:30:23;;;;;;;14.35;7.65;;;5.20;55.10;;;;;;4962979;28;20062;-89
2022/03/23 00:32:49;;;;;;;11.20;7.63;;;5.10;55.00;;;;;;4963449;28;20072;-89
2022/03/23 00:35:15;;;;;;;17.05;8.68;;;5.10;55.30;;;;;;4963247;28;20062;-89
2022/03/23 00:37:41;;;;;;;21.35;9.70;;;5.10;55.50;;;;;;4953231;28;20031;-90
2022/03/23 00:40:08;;;;;;;17.15;9.50;;;5.10;55.40;;;;;;4972752;28;20020;-89
2022/03/23 00:42:33;;;;;;;15.98;8.60;;;5.00;55.30;;;;;;4963662;28;20070;-89
2022/03/23 00:44:59;;;;;;;13.85;7.78;;;5.00;55.50;;;;;;4971094;28;20027;-89
2022/03/23 00:47:24;;;;;;;14.90;7.97;;;4.90;55.50;;;;;;4961143;28;20483;-89
2022/03/23 00:49:50;;;;;;;12.23;7.25;;;4.90;55.40;;;;;;4976448;28;20041;-90
2022/03/23 00:52:15;;;;;;;16.48;7.75;;;4.90;55.50;;;;;;4966544;28;20027;-89
2022/03/23 00:54:41;;;;;;;14.05;7.55;;;4.80;55.60;;;;;;4954564;28;20031;-89
2022/03/23 00:57:07;;;;;;;10.45;7.28;;;4.70;55.50;;;;;;4958695;28;20127;-89
2022/03/23 00:59:34;;;;;;;12.52;7.57;;;4.70;55.60;;;;;;4956417;28;20459;-89
2022/03/23 01:02:00;;;;;;;10.25;7.15;;;4.60;55.80;;;;;;4972922;28;20021;-89
2022/03/23 01:04:26;;;;;;;11.50;7.25;;;4.60;56.10;;;;;;4963126;28;20023;-89
2022/03/23 01:06:52;;;;;;;12.18;7.35;;;4.60;56.10;;;;;;4956458;28;20086;-89
2022/03/23 01:09:25;;;;;;;10.85;7.63;;;4.60;56.10;;;;;;4965030;28;20045;-89
2022/03/23 01:11:55;;;;;;;11.20;7.35;;;4.60;56.40;;;;;;4972539;28;20107;-89
2022/03/23 01:14:23;;;;;;;10.48;6.90;;;4.60;56.30;;;;;;4958918;28;20039;-90
2022/03/23 01:16:50;;;;;;;11.65;6.97;;;4.60;56.30;;;;;;4964145;28;20094;-89
2022/03/23 01:19:17;;;;;;;9.65;6.45;;;4.60;56.20;;;;;;4975797;28;20050;-89
2022/03/23 01:21:44;;;;;;;10.02;6.15;;;4.60;56.30;;;;;;4962464;28;20031;-89
2022/03/23 01:24:10;;;;;;;14.57;8.68;;;4.60;56.40;;;;;;4976449;28;20019;-89
2022/03/23 01:26:36;;;;;;;17.23;9.10;;;4.60;56.50;;;;;;4974891;28;20157;-89
2022/03/23 01:29:02;;;;;;;11.30;7.65;;;4.50;56.30;;;;;;4967257;28;20049;-89
2022/03/23 01:31:28;;;;;;;12.85;7.93;;;4.40;56.30;;;;;;4959856;28;20042;-89
2022/03/23 01:33:59;;;;;;;16.67;8.02;;;4.40;57.10;;;;;;4958696;28;20031;-89
2022/03/23 01:36:28;;;;;;;25.52;12.52;;;4.40;56.90;;;;;;4962135;28;20022;-89
2022/03/23 01:38:54;;;;;;;17.92;9.45;;;4.40;56.80;;;;;;4963450;28;20038;-89
2022/03/23 01:41:20;;;;;;;16.13;8.52;;;4.30;56.70;;;;;;4975103;28;20027;-89
2022/03/23 01:43:46;;;;;;;13.70;8.48;;;4.20;56.70;;;;;;4966072;28;20499;-89
2022/03/23 01:46:12;;;;;;;13.63;8.30;;;4.20;56.90;;;;;;4965648;28;20039;-89
2022/03/23 01:48:37;;;;;;;13.55;8.20;;;4.10;56.90;;;;;;4961168;28;20108;-89
2022/03/23 01:51:03;;;;;;;12.65;8.55;;;4.10;57.00;;;;;;4952138;28;20030;-88
2022/03/23 01:53:29;;;;;;;17.33;10.77;;;4.10;57.10;;;;;;4976136;28;20427;-88
2022/03/23 01:55:55;;;;;;;17.80;10.73;;;4.00;57.10;;;;;;4948586;28;20444;-89
2022/03/23 01:58:21;;;;;;;15.55;9.93;;;3.90;57.20;;;;;;4961195;28;20064;-89
2022/03/23 02:00:47;;;;;;;16.40;10.00;;;3.90;57.30;;;;;;4967048;28;20030;-89
2022/03/23 02:03:12;;;;;;;17.17;10.40;;;4.00;57.50;;;;;;4974898;28;20023;-90
2022/03/23 02:05:38;;;;;;;15.43;9.55;;;4.00;57.40;;;;;;4986114;28;20031;-89
2022/03/23 02:08:04;;;;;;;16.02;9.13;;;3.90;57.30;;;;;;4959742;28;20030;-88
2022/03/23 02:10:31;;;;;;;14.48;8.00;;;3.90;57.40;;;;;;4961935;28;20026;-89
2022/03/23 02:12:56;;;;;;;12.13;7.82;;;3.80;57.40;;;;;;4978156;28;20027;-89
2022/03/23 02:15:25;;;;;;;12.23;7.75;;;3.70;57.40;;;;;;4956925;28;20031;-87
2022/03/23 02:17:53;;;;;;;13.40;7.80;;;3.70;57.30;;;;;;4959908;28;20085;-89
2022/03/23 02:20:19;;;;;;;14.25;7.65;;;3.60;57.50;;;;;;4956953;28;20049;-89
2022/03/23 02:22:44;;;;;;;11.43;7.18;;;3.50;57.70;;;;;;4958460;28;20019;-89
2022/03/23 02:25:10;;;;;;;13.45;8.23;;;3.50;57.80;;;;;;4955891;28;20182;-89
2022/03/23 02:27:38;;;;;;;13.00;6.85;;;3.50;57.80;;;;;;4955317;28;20023;-89
2022/03/23 02:30:06;;;;;;;12.43;7.63;;;3.40;58.00;;;;;;4963862;28;20019;-89
2022/03/23 02:32:33;;;;;;;11.43;7.45;;;3.40;58.20;;;;;;4956810;28;20113;-90
2022/03/23 02:35:00;;;;;;;11.25;7.53;;;3.40;58.20;;;;;;4958992;28;20018;-89
2022/03/23 02:37:27;;;;;;;11.43;7.65;;;3.40;58.30;;;;;;4986845;22;20433;-87
2022/03/23 02:39:53;;;;;;;11.93;7.85;;;3.40;58.30;;;;;;4998671;28;20026;-85
2022/03/23 02:42:19;;;;;;;13.23;7.60;;;3.40;58.30;;;;;;4995663;28;20033;-87
2022/03/23 02:44:44;;;;;;;11.82;7.78;;;3.40;58.50;;;;;;4998687;28;20026;-87
2022/03/23 02:47:10;;;;;;;10.27;7.38;;;3.40;58.40;;;;;;5005485;28;20030;-87
2022/03/23 02:49:36;;;;;;;11.75;7.35;;;3.30;58.30;;;;;;5016507;28;20022;-87
2022/03/23 02:52:02;;;;;;;12.77;7.32;;;3.30;58.40;;;;;;5000039;28;20080;-87
2022/03/23 03:03:17;;;;;;;9.63;6.65;;;3.20;58.50;;;;;;5016262;28;20125;-87
2022/03/23 03:05:42;;;;;;;10.48;6.68;;;3.20;58.50;;;;;;4998926;28;20045;-87
2022/03/23 03:10:52;;;;;;;10.27;6.57;;;3.20;58.80;;;;;;5015250;28;20559;-87
2022/03/23 03:13:17;;;;;;;10.50;6.60;;;3.30;58.70;;;;;;5015102;28;20050;-86
2022/03/23 03:15:43;;;;;;;9.63;6.30;;;3.20;58.60;;;;;;4998073;28;20033;-87
2022/03/23 03:18:09;;;;;;;10.77;6.63;;;3.20;58.60;;;;;;4997715;28;20032;-86
2022/03/23 03:20:35;;;;;;;10.18;6.85;;;3.10;58.60;;;;;;5015445;28;20531;-87
2022/03/23 03:23:00;;;;;;;10.05;6.75;;;3.10;58.70;;;;;;5003979;28;20054;-87
2022/03/23 03:25:26;;;;;;;10.23;6.68;;;3.10;58.90;;;;;;5008148;28;20037;-86
2022/03/23 03:27:51;;;;;;;10.90;6.43;;;3.10;58.90;;;;;;4998928;28;20375;-87
2022/03/23 03:30:18;;;;;;;10.32;6.40;;;3.10;58.90;;;;;;4995698;28;20042;-87
2022/03/23 03:32:45;;;;;;;9.93;5.93;;;3.10;59.00;;;;;;5009742;28;20041;-85
2022/03/23 03:35:12;;;;;;;10.23;7.00;;;3.10;59.00;;;;;;4997067;28;20030;-85
2022/03/23 03:37:39;;;;;;;11.02;6.75;;;3.00;59.00;;;;;;5014971;28;20040;-86
2022/03/23 03:40:06;;;;;;;9.50;6.28;;;3.00;59.00;;;;;;4997252;28;20036;-85
2022/03/23 03:42:32;;;;;;;10.90;6.43;;;3.00;59.00;;;;;;4997751;28;20391;-87
2022/03/23 03:44:58;;;;;;;11.75;6.53;;;2.90;58.90;;;;;;5015167;28;20022;-87
2022/03/23 03:47:24;;;;;;;12.25;7.60;;;2.90;58.90;;;;;;4978940;28;20026;-87
2022/03/23 03:49:50;;;;;;;15.65;7.82;;;2.80;59.00;;;;;;4977949;28;20017;-87
2022/03/23 03:52:18;;;;;;;12.00;7.82;;;2.80;59.00;;;;;;5012801;28;20702;-87
2022/03/23 03:54:44;;;;;;;13.05;8.50;;;2.70;59.10;;;;;;4997501;28;20112;-87
2022/03/23 03:57:10;;;;;;;16.00;8.45;;;2.60;59.10;;;;;;4997166;28;20045;-86
2022/03/23 03:59:36;;;;;;;13.68;8.50;;;2.60;59.20;;;;;;5013305;28;20025;-86
2022/03/23 04:02:02;;;;;;;14.88;9.15;;;2.50;59.30;;;;;;5002872;28;20022;-87
2022/03/23 04:04:28;;;;;;;15.63;8.57;;;2.50;59.40;;;;;;4996656;28;20014;-86
2022/03/23 04:06:54;;;;;;;16.00;9.07;;;2.50;59.50;;;;;;5014342;28;20036;-87
2022/03/23 04:09:19;;;;;;;14.90;8.75;;;2.50;59.60;;;;;;4983827;28;20018;-84
2022/03/23 04:11:45;;;;;;;12.88;8.23;;;2.50;59.70;;;;;;4997124;28;20026;-87
2022/03/23 04:14:10;;;;;;;16.75;8.30;;;2.50;59.70;;;;;;4996883;28;20030;-85
2022/03/23 04:16:36;;;;;;;13.15;7.53;;;2.50;59.70;;;;;;4994910;28;20503;-87
2022/03/23 04:19:05;;;;;;;14.95;8.02;;;2.50;59.80;;;;;;5010313;28;20025;-87
2022/03/23 04:21:30;;;;;;;11.60;7.55;;;2.50;59.90;;;;;;4996621;28;20026;-86
2022/03/23 04:23:56;;;;;;;15.85;7.80;;;2.50;60.10;;;;;;5003929;28;20022;-87
2022/03/23 04:26:22;;;;;;;13.00;7.63;;;2.50;59.80;;;;;;5011691;28;20033;-86
2022/03/23 04:28:47;;;;;;;11.73;8.43;;;2.50;59.90;;;;;;5003743;28;20030;-86
2022/03/23 04:31:13;;;;;;;12.50;7.47;;;2.40;59.80;;;;;;5018886;28;20029;-86
2022/03/23 04:33:38;;;;;;;12.60;7.57;;;2.40;59.90;;;;;;4997375;28;20074;-88
2022/03/23 04:36:04;;;;;;;11.95;7.75;;;2.40;60.00;;;;;;5014350;28;20034;-87
2022/03/23 04:38:29;;;;;;;13.27;8.23;;;2.40;60.00;;;;;;5014366;28;20037;-87
2022/03/23 04:40:56;;;;;;;13.73;8.52;;;2.30;60.00;;;;;;4996794;28;20533;-87
2022/03/23 04:43:21;;;;;;;14.48;8.23;;;2.30;60.10;;;;;;4997515;28;20091;-87
2022/03/23 04:45:47;;;;;;;11.90;7.70;;;2.30;60.30;;;;;;5018546;28;20104;-87
2022/03/23 04:48:12;;;;;;;12.95;8.18;;;2.30;60.40;;;;;;5000689;28;20029;-84
2022/03/23 04:50:38;;;;;;;13.18;7.63;;;2.30;60.40;;;;;;5000615;28;20490;-86
2022/03/23 04:53:03;;;;;;;12.70;8.07;;;2.30;60.40;;;;;;5000621;28;20535;-87
2022/03/23 04:55:29;;;;;;;12.50;7.88;;;2.30;60.40;;;;;;5000204;28;20065;-87
2022/03/23 04:57:55;;;;;;;12.85;7.80;;;2.20;60.40;;;;;;5007481;28;20022;-87
2022/03/23 05:00:21;;;;;;;14.65;7.43;;;2.20;60.40;;;;;;5008495;28;20099;-87
2022/03/23 05:02:49;;;;;;;12.25;7.32;;;2.20;60.40;;;;;;5004758;28;20026;-87
2022/03/23 05:05:15;;;;;;;13.77;7.68;;;2.10;60.50;;;;;;5000858;28;20021;-86
2022/03/23 05:07:42;;;;;;;16.77;7.78;;;2.10;60.50;;;;;;5003897;28;20030;-86
2022/03/23 05:10:08;;;;;;;12.30;7.93;;;2.10;60.70;;;;;;5012598;28;20081;-85
2022/03/23 05:12:36;;;;;;;12.43;7.75;;;2.10;60.80;;;;;;5001267;28;20025;-87
2022/03/23 05:15:04;;;;;;;15.40;7.78;;;2.10;60.90;;;;;;5000603;28;20025;-85
2022/03/23 05:17:30;;;;;;;14.80;8.95;;;2.10;60.90;;;;;;5000944;28;20026;-86
2022/03/23 05:19:56;;;;;;;12.48;8.13;;;2.10;60.80;;;;;;5019955;28;20029;-87
2022/03/23 05:22:21;;;;;;;12.85;8.20;;;2.10;60.90;;;;;;4991653;28;20022;-86
2022/03/23 05:24:47;;;;;;;12.85;8.18;;;2.10;60.90;;;;;;5004616;28;20018;-86
2022/03/23 05:27:12;;;;;;;15.40;8.50;;;2.00;60.90;;;;;;4999648;28;20160;-86
2022/03/23 05:29:39;;;;;;;12.82;8.25;;;2.00;60.90;;;;;;5017731;28;20024;-86
2022/03/23 05:32:04;;;;;;;11.90;7.72;;;2.00;60.80;;;;;;5017740;28;20030;-86
2022/03/23 05:34:30;;;;;;;12.57;8.02;;;1.90;60.60;;;;;;5000041;28;20092;-85
2022/03/23 05:36:56;;;;;;;15.45;8.18;;;1.80;60.60;;;;;;5000053;28;20041;-87
2022/03/23 05:39:21;;;;;;;11.05;8.32;;;1.80;60.80;;;;;;4999498;28;20038;-85
2022/03/23 05:41:47;;;;;;;15.27;8.10;;;1.70;61.00;;;;;;4999815;28;20022;-86
2022/03/23 05:44:13;;;;;;;14.02;7.78;;;1.70;61.10;;;;;;4999117;28;20037;-86
2022/03/23 05:46:39;;;;;;;13.77;7.75;;;1.70;61.10;;;;;;4999789;28;20026;-86
2022/03/23 05:49:04;;;;;;;12.30;7.82;;;1.80;61.20;;;;;;4999142;28;20127;-86
2022/03/23 05:51:30;;;;;;;12.13;7.55;;;1.70;61.20;;;;;;4999179;28;20120;-86
2022/03/23 05:53:56;;;;;;;13.95;7.93;;;1.80;61.20;;;;;;5016865;28;20053;-86
2022/03/23 05:56:21;;;;;;;11.98;7.72;;;1.80;61.30;;;;;;4999197;28;20080;-86
2022/03/23 05:58:48;;;;;;;11.57;7.15;;;1.80;61.20;;;;;;5005637;28;20029;-87
2022/03/23 06:01:13;;;;;;;10.02;7.13;;;1.80;61.20;;;;;;5017329;28;20049;-86
2022/03/23 06:03:39;;;;;;;11.95;7.55;;;1.80;61.30;;;;;;5017315;28;20021;-86
2022/03/23 06:06:05;;;;;;;11.60;7.53;;;1.90;61.30;;;;;;4999121;28;20511;-87
2022/03/23 06:08:30;;;;;;;12.82;7.55;;;1.90;61.40;;;;;;4998612;28;20072;-88
2022/03/23 06:10:56;;;;;;;12.65;7.75;;;1.90;61.20;;;;;;4991700;28;20385;-84
2022/03/23 06:13:21;;;;;;;12.30;8.35;;;1.90;61.20;;;;;;5007516;28;20033;-86
2022/03/23 06:15:47;;;;;;;11.90;7.45;;;2.00;61.40;;;;;;5016032;28;20440;-87
2022/03/23 06:18:13;;;;;;;10.80;7.22;;;2.10;61.50;;;;;;5007195;28;20385;-87
2022/03/23 06:20:38;;;;;;;13.60;8.35;;;2.20;61.50;;;;;;5013730;28;20028;-87
2022/03/23 06:23:05;;;;;;;20.08;10.88;;;2.30;61.40;;;;;;4999985;28;20029;-85
2022/03/23 06:25:31;;;;;;;17.20;9.40;;;2.40;61.40;;;;;;5015842;28;20022;-86
2022/03/23 06:27:57;;;;;;;18.88;9.88;;;2.60;61.30;;;;;;4998270;28;20053;-85
2022/03/23 06:30:23;;;;;;;16.67;9.52;;;2.70;61.10;;;;;;5007883;28;20054;-85
2022/03/23 06:32:49;;;;;;;17.40;9.30;;;2.80;60.90;;;;;;5014445;28;20456;-86
2022/03/23 06:35:16;;;;;;;14.30;8.82;;;2.90;60.90;;;;;;4996423;28;20053;-84
2022/03/23 06:37:42;;;;;;;16.20;9.38;;;3.00;60.70;;;;;;4994007;28;20109;-86
2022/03/23 06:40:08;;;;;;;15.75;8.82;;;3.20;60.70;;;;;;4996233;28;20496;-85
2022/03/23 06:42:34;;;;;;;20.27;10.68;;;3.30;60.70;;;;;;5001295;28;20033;-85
2022/03/23 06:45:02;;;;;;;19.35;8.45;;;3.50;60.70;;;;;;4999292;28;20101;-85
2022/03/23 06:47:28;;;;;;;14.77;8.75;;;3.70;60.90;;;;;;5002149;28;20026;-87
2022/03/23 06:50:15;;;;;;;15.13;8.25;;;4.00;60.80;;;;;;5005259;28;20021;-87
2022/03/23 06:52:40;;;;;;;13.13;8.25;;;4.20;60.80;;;;;;5023986;28;20445;-87
2022/03/23 06:55:06;;;;;;;13.70;8.15;;;4.50;60.60;;;;;;5007505;28;20052;-87
2022/03/23 06:57:32;;;;;;;16.88;8.77;;;4.80;60.40;;;;;;5006985;28;20138;-86
2022/03/23 07:00:03;;;;;;;16.50;10.20;;;5.00;60.20;;;;;;5004846;28;20018;-87
2022/03/23 07:02:28;;;;;;;19.23;9.63;;;5.40;60.20;;;;;;5006765;28;20100;-87
2022/03/23 07:04:54;;;;;;;17.40;9.68;;;5.60;59.80;;;;;;5003884;28;20544;-86
2022/03/23 07:07:20;;;;;;;15.68;9.40;;;6.10;59.80;;;;;;4999089;28;20037;-86
2022/03/23 07:09:46;;;;;;;16.50;9.85;;;6.40;59.60;;;;;;5001634;28;20022;-86
2022/03/23 07:12:12;;;;;;;14.02;9.68;;;6.50;59.40;;;;;;5000939;28;20029;-87
2022/03/23 07:14:39;;;;;;;18.60;10.32;;;6.80;59.60;;;;;;4997807;28;20722;-86
2022/03/23 07:17:05;;;;;;;15.93;9.38;;;7.00;59.40;;;;;;4997750;28;20155;-86
2022/03/23 07:19:31;;;;;;;19.15;9.15;;;7.40;59.00;;;;;;4998002;28;20022;-86
2022/03/23 07:21:57;;;;;;;17.95;9.65;;;7.70;58.40;;;;;;5015482;28;20028;-86
2022/03/23 07:24:23;;;;;;;12.63;8.85;;;8.00;57.70;;;;;;4996678;28;20461;-85
2022/03/23 07:26:49;;;;;;;14.63;9.00;;;8.40;57.10;;;;;;4997207;28;20026;-86
2022/03/23 07:29:15;;;;;;;15.20;8.55;;;8.80;56.70;;;;;;4997310;28;20039;-86
2022/03/23 07:31:41;;;;;;;13.70;8.77;;;9.50;56.70;;;;;;4997624;28;20120;-86
2022/03/23 07:34:10;;;;;;;12.07;8.07;;;10.10;56.20;;;;;;4997008;28;20112;-86
2022/03/23 07:36:38;;;;;;;12.63;8.23;;;10.60;55.60;;;;;;5015425;28;20480;-86
2022/03/23 07:39:04;;;;;;;13.73;8.18;;;10.90;55.00;;;;;;5002461;28;20053;-85
2022/03/23 07:41:29;;;;;;;12.57;8.00;;;11.00;54.70;;;;;;5010992;28;20041;-87
2022/03/23 07:43:55;;;;;;;13.88;8.20;;;11.20;54.70;;;;;;5014334;28;20033;-88
2022/03/23 07:46:20;;;;;;;13.77;7.82;;;11.40;55.10;;;;;;5013218;28;20026;-87
2022/03/23 07:48:46;;;;;;;11.88;7.93;;;11.60;55.20;;;;;;5011995;28;20029;-87
2022/03/23 07:51:12;;;;;;;14.90;8.57;;;12.00;54.70;;;;;;5011809;28;20030;-87
2022/03/23 07:53:40;;;;;;;11.93;8.27;;;12.60;53.60;;;;;;5009613;28;20431;-86
2022/03/23 07:56:06;;;;;;;12.43;7.28;;;13.20;52.10;;;;;;5006946;28;20030;-87
2022/03/23 07:58:31;;;;;;;12.80;7.53;;;13.90;50.50;;;;;;5006967;28;20041;-86
2022/03/23 08:00:57;;;;;;;10.77;7.50;;;14.60;49.50;;;;;;5024265;28;20541;-87
2022/03/23 08:03:23;;;;;;;12.23;7.40;;;15.40;48.30;;;;;;5007146;28;20017;-86
2022/03/23 08:05:49;;;;;;;10.70;7.03;;;15.90;47.20;;;;;;4996018;28;20026;-87
2022/03/23 08:08:14;;;;;;;12.57;7.30;;;16.60;46.40;;;;;;4995295;28;20468;-86
2022/03/23 08:10:41;;;;;;;9.65;6.93;;;17.20;45.60;;;;;;5005153;28;20049;-86
2022/03/23 08:13:09;;;;;;;11.98;8.02;;;17.90;45.30;;;;;;5002783;28;20032;-86
2022/03/23 08:15:36;;;;;;;12.10;7.53;;;18.40;44.90;;;;;;5002437;28;20026;-86
2022/03/23 08:18:03;;;;;;;10.88;7.60;;;19.20;44.30;;;;;;5002675;28;20018;-86
2022/03/23 08:20:37;;;;;;;11.25;7.57;;;19.80;43.50;;;;;;5002501;28;20018;-86
2022/03/23 08:23:08;;;;;;;10.45;7.75;;;20.50;42.60;;;;;;5002637;28;20026;-86
2022/03/23 08:25:37;;;;;;;13.02;7.15;;;21.00;41.70;;;;;;5003077;28;20025;-86
2022/03/23 08:28:04;;;;;;;9.18;7.03;;;21.50;41.50;;;;;;5003288;28;20038;-86
2022/03/23 08:30:29;;;;;;;14.50;7.93;;;21.80;41.70;;;;;;5019939;28;20030;-86
2022/03/23 08:32:55;;;;;;;10.60;7.22;;;22.20;40.70;;;;;;5003051;28;20053;-86
2022/03/23 08:35:21;;;;;;;11.35;7.70;;;22.40;39.80;;;;;;5003059;28;20121;-86
2022/03/23 09:47:40;;;;;;;11.20;6.82;;;19.80;39.90;;;;;;5015909;28;20046;-91
2022/03/23 09:50:08;;;;;;;10.73;6.65;;;19.50;39.70;;;;;;5001972;28;20544;-92
2022/03/23 09:52:34;;;;;;;8.30;6.22;;;19.40;40.50;;;;;;4998841;28;20323;-91
2022/03/23 09:54:59;;;;;;;7.43;5.60;;;19.50;40.70;;;;;;4999743;28;20026;-92
2022/03/23 09:57:25;;;;;;;8.55;5.68;;;19.70;40.40;;;;;;5000851;28;20022;-91
2022/03/23 09:59:51;;;;;;;8.00;5.53;;;19.90;40.30;;;;;;4999419;28;20028;-91
2022/03/23 10:02:54;;;;;;;7.10;5.50;;;20.20;40.40;;;;;;4999786;28;20390;-90
2022/03/23 10:05:47;;;;;;;7.88;5.22;;;20.40;39.90;;;;;;4998074;28;20026;-92
2022/03/23 10:08:37;;;;;;;6.93;5.38;;;20.70;40.20;;;;;;5000107;28;20025;-92
2022/03/23 10:11:40;;;;;;;8.88;5.78;;;20.90;39.60;;;;;;4998417;28;20074;-90
2022/03/23 10:14:33;;;;;;;8.95;5.43;;;21.10;39.90;;;;;;5000712;28;20030;-91
2022/03/23 10:17:14;;;;;;;8.75;5.95;;;21.30;39.80;;;;;;5003780;28;20032;-92
2022/03/23 10:19:43;;;;;;;10.15;5.97;;;21.20;39.10;;;;;;5001663;28;21054;-91
2022/03/23 10:22:11;;;;;;;11.23;6.30;;;21.30;39.40;;;;;;5009206;28;20056;-92
2022/03/23 10:24:38;;;;;;;9.77;6.18;;;21.40;39.30;;;;;;5013212;28;20038;-89
2022/03/23 10:27:12;;;;;;;12.18;6.18;;;21.40;39.20;;;;;;5009358;28;20018;-91
2022/03/23 10:29:46;;;;;;;10.52;5.78;;;21.50;39.00;;;;;;5012550;28;20022;-92
2022/03/23 10:32:13;;;;;;;9.55;6.00;;;21.60;38.80;;;;;;4998641;28;20107;-91
2022/03/23 10:34:47;;;;;;;10.10;6.47;;;21.70;38.80;;;;;;4991176;28;20087;-92
2022/03/23 10:37:15;;;;;;;76.30;48.03;;;21.80;38.40;;;;;;4998336;28;20026;-92
2022/03/23 10:39:41;;;;;;;10.32;7.05;;;21.90;38.80;;;;;;5011989;28;20057;-93
2022/03/23 10:42:13;;;;;;;7.85;6.53;;;21.90;38.50;;;;;;5003008;28;20032;-93
2022/03/23 10:44:41;;;;;;;9.52;5.55;;;22.00;38.30;;;;;;4992129;28;20025;-93
2022/03/23 10:47:08;;;;;;;9.18;6.00;;;22.10;38.30;;;;;;5002677;28;20038;-91
2022/03/23 10:49:38;;;;;;;7.18;6.40;;;22.20;38.10;;;;;;4998072;28;20034;-90
2022/03/23 10:52:15;;;;;;;8.30;6.43;;;22.20;37.80;;;;;;4998356;28;20026;-90
2022/03/23 10:55:00;;;;;;;9.15;6.07;;;22.10;37.70;;;;;;5000458;28;20033;-90
2022/03/23 10:57:39;;;;;;;6.65;5.93;;;22.20;37.90;;;;;;4992026;28;20485;-91
2022/03/23 11:00:06;;;;;;;9.77;5.90;;;22.20;37.50;;;;;;4997428;28;20038;-91
2022/03/23 11:02:47;;;;;;;10.20;5.57;;;22.20;37.60;;;;;;4997941;28;20120;-90
2022/03/23 11:05:36;;;;;;;9.07;5.30;;;22.30;37.40;;;;;;5012818;28;20109;-92
2022/03/23 11:08:24;;;;;;;8.10;6.53;;;22.40;37.80;;;;;;4997769;28;20038;-90
2022/03/23 11:16:52;;;;;;;10.93;5.63;;;22.40;37.50;;;;;;5018971;28;20099;-91
2022/03/23 11:19:26;;;;;;;7.15;5.75;;;22.50;38.10;;;;;;4996928;28;20030;-91
2022/03/23 11:22:12;;;;;;;7.22;6.10;;;22.60;37.80;;;;;;4997532;28;20048;-92
2022/03/23 11:24:40;;;;;;;9.57;7.20;;;22.70;37.70;;;;;;4999095;28;20405;-91
2022/03/23 11:27:08;;;;;;;6.35;5.72;;;22.80;37.50;;;;;;4997262;28;20063;-92
2022/03/23 11:29:37;;;;;;;8.90;6.10;;;22.90;37.40;;;;;;4999224;28;20033;-91
2022/03/23 11:32:07;;;;;;;7.20;6.05;;;23.00;37.00;;;;;;5000974;28;20053;-91
2022/03/23 11:34:36;;;;;;;7.55;5.45;;;23.00;37.20;;;;;;5000729;28;20034;-92
2022/03/23 11:37:07;;;;;;;8.60;6.00;;;23.10;37.20;;;;;;5012744;28;20030;-92
2022/03/23 11:39:36;;;;;;;6.90;5.32;;;23.20;37.00;;;;;;5013857;28;20179;-92
2022/03/23 11:42:03;;;;;;;8.38;5.50;;;23.10;36.60;;;;;;5010308;28;20052;-89
2022/03/23 11:44:30;;;;;;;7.32;5.40;;;23.00;36.20;;;;;;5011101;28;20030;-91
2022/03/23 11:47:06;;;;;;;7.05;5.65;;;22.90;36.30;;;;;;5011452;28;20105;-91
2022/03/23 11:50:04;;;;;;;10.13;5.30;;;22.80;36.50;;;;;;5011718;28;20390;-90
2022/03/23 11:52:35;;;;;;;7.28;5.60;;;22.60;36.40;;;;;;4959245;28;20118;-90
2022/03/23 11:58:15;;;;;;;7.20;6.00;;;22.60;36.10;;;;;;5014508;28;20049;-92
2022/03/23 12:00:55;;;;;;;8.27;5.65;;;22.60;35.80;;;;;;5009609;28;20030;-91
2022/03/23 12:03:40;;;;;;;6.88;5.60;;;22.60;36.60;;;;;;4994766;28;20510;-92
2022/03/23 12:06:09;;;;;;;8.55;6.25;;;22.60;36.20;;;;;;4998966;28;20030;-90
2022/03/23 12:09:03;;;;;;;7.43;6.30;;;22.70;36.00;;;;;;4987686;28;20112;-91
2022/03/23 12:11:55;;;;;;;7.88;5.63;;;22.70;35.80;;;;;;4999451;28;20022;-91
2022/03/23 12:14:31;;;;;;;;;;;22.60;36.20;;;;;;5003119;28;20029;-89
2022/03/23 12:17:01;;;;;;;8.60;6.20;;;22.70;37.30;;;;;;5031073;28;19898;-91
2022/03/23 12:19:34;;;;;;;6.90;6.18;;;22.80;37.00;;;;;;5017813;28;20094;-91
2022/03/23 12:22:06;;;;;;;8.40;6.32;;;22.90;36.20;;;;;;5005333;28;20054;-91
2022/03/23 12:24:39;;;;;;;6.80;5.80;;;22.90;35.70;;;;;;5002174;28;20022;-92
2022/03/23 12:27:16;;;;;;;7.97;6.15;;;22.80;35.60;;;;;;4995557;28;20057;-90
2022/03/23 12:29:47;;;;;;;8.43;6.05;;;22.70;35.60;;;;;;5000381;28;20026;-92
2022/03/23 12:32:14;;;;;;;6.90;5.70;;;22.60;35.70;;;;;;5004299;28;20102;-92
2022/03/23 12:34:43;;;;;;;8.57;6.22;;;22.60;35.90;;;;;;5006376;28;20080;-90
2022/03/23 12:37:19;;;;;;;8.70;6.07;;;22.50;35.60;;;;;;5005084;28;20033;-92
2022/03/23 12:39:53;;;;;;;8.05;6.20;;;22.50;35.40;;;;;;5004687;28;20052;-92
2022/03/23 12:42:26;;;;;;;10.85;6.57;;;22.60;35.70;;;;;;5004812;28;20038;-91
2022/03/23 12:45:11;;;;;;;8.63;7.15;;;22.80;35.70;;;;;;4996966;28;20027;-92
2022/03/23 12:47:47;;;;;;;8.48;7.05;;;23.00;35.10;;;;;;4994109;28;20040;-91
2022/03/23 12:57:49;;;;;;;11.90;7.05;;;23.10;35.20;;;;;;5020067;28;20052;-91
2022/03/23 12:58:58;;;;;;;12.93;6.88;;;23.00;35.60;;;;;;4986534;28;20057;-91
2022/03/23 13:01:29;;;;;;;8.85;6.50;;;23.20;36.00;;;;;;4976859;28;20058;-91
2022/03/23 13:03:56;;;;;;;9.35;7.03;;;23.40;35.50;;;;;;4987693;28;20031;-91
2022/03/23 13:06:32;;;;;;;8.07;6.90;;;23.50;35.50;;;;;;5004545;28;20102;-92
2022/03/23 13:08:59;;;;;;;9.40;7.45;;;23.50;35.20;;;;;;5002988;28;20057;-91
2022/03/23 13:11:30;;;;;;;8.82;7.20;;;23.60;35.50;;;;;;5003333;28;20041;-90
2022/03/23 13:13:57;;;;;;;9.43;6.55;;;23.60;35.00;;;;;;5014496;28;20363;-91
2022/03/23 13:16:31;;;;;;;9.85;7.05;;;23.70;34.60;;;;;;5005617;28;20028;-90
2022/03/23 13:19:01;;;;;;;8.98;6.55;;;23.60;34.60;;;;;;5010235;28;20018;-91
2022/03/23 13:21:30;;;;;;;10.13;6.72;;;23.70;34.70;;;;;;5001933;28;20041;-91
2022/03/23 13:24:03;;;;;;;8.75;6.65;;;23.80;35.40;;;;;;5001692;28;20080;-89
2022/03/23 13:26:35;;;;;;;8.80;6.55;;;23.90;35.10;;;;;;5002700;28;20032;-91
2022/03/23 13:29:08;;;;;;;10.25;6.78;;;24.00;34.80;;;;;;5006441;28;20037;-91
2022/03/23 13:31:36;;;;;;;8.65;6.70;;;23.90;34.40;;;;;;5008530;28;20113;-91
2022/03/23 13:34:06;;;;;;;15.65;10.73;;;23.80;34.60;;;;;;5002625;28;20088;-91
2022/03/23 13:36:34;;;;;;;9.15;7.25;;;23.80;35.00;;;;;;4998379;28;20041;-91
2022/03/23 13:39:03;;;;;;;9.18;6.90;;;23.90;35.50;;;;;;4998627;28;20018;-91
2022/03/23 13:44:16;;;;;;;11.15;7.05;;;24.30;34.80;;;;;;5016054;28;20107;-90
2022/03/23 13:46:44;;;;;;;9.13;6.43;;;24.60;34.80;;;;;;4999439;28;20041;-92
2022/03/23 13:49:12;;;;;;;15.50;6.60;;;24.80;34.30;;;;;;4999308;28;20030;-91
2022/03/23 13:51:45;;;;;;;11.18;6.50;;;25.10;34.40;;;;;;5006840;28;20102;-90
2022/03/23 13:54:20;;;;;;;10.88;6.32;;;25.40;35.10;;;;;;5020157;28;20033;-90
2022/03/23 13:56:49;;;;;;;9.27;6.50;;;25.60;34.50;;;;;;5016303;28;20026;-91
2022/03/23 13:59:19;;;;;;;9.20;6.75;;;25.60;33.90;;;;;;5000456;28;20026;-91
2022/03/23 14:01:48;;;;;;;8.48;6.50;;;25.40;33.50;;;;;;4997842;28;20053;-92
2022/03/23 14:04:16;;;;;;;10.85;6.47;;;25.00;33.80;;;;;;4998844;28;20029;-89
2022/03/23 14:06:47;;;;;;;7.75;6.45;;;24.60;34.00;;;;;;4991088;28;20025;-91
2022/03/23 14:09:15;;;;;;;9.35;6.20;;;24.20;33.90;;;;;;5000259;28;20022;-92
2022/03/23 14:14:31;;;;;;;6.95;6.25;;;23.50;34.20;;;;;;5018836;28;20467;-91
2022/03/23 14:17:16;;;;;;;11.65;6.20;;;23.20;33.50;;;;;;5000405;28;20092;-90
2022/03/23 14:19:44;;;;;;;11.00;5.97;;;22.80;33.40;;;;;;5000395;28;20105;-91
2022/03/23 14:22:16;;;;;;;13.57;6.57;;;22.60;34.40;;;;;;4996794;28;20487;-91
2022/03/23 14:24:43;;;;;;;7.25;6.13;;;22.40;34.50;;;;;;4981337;28;20588;-91
2022/03/23 14:27:16;;;;;;;7.72;5.90;;;22.20;34.60;;;;;;4982746;28;20047;-90
2022/03/23 14:30:08;;;;;;;7.63;6.07;;;22.10;34.40;;;;;;5021542;28;20041;-89
2022/03/23 14:32:42;;;;;;;10.33;6.17;;;21.80;34.20;;;;;;5006094;28;20014;-88
2022/03/23 14:35:11;;;;;;;9.40;6.50;;;21.70;34.40;;;;;;5021301;28;20292;-88